createdAt,value
2023-03-07T00:00:18.576Z,99435.03
2023-03-07T00:00:40.361Z,99445.78
2023-03-07T00:01:02.226Z,99450.16
2023-03-07T00:01:25.519Z,99461.53
2023-03-07T00:01:47.135Z,99454.97
2023-03-07T00:02:09.837Z,99453.84
2023-03-07T00:02:31.591Z,99449.69
2023-03-07T00:02:53.234Z,99455.63
2023-03-07T00:03:16.995Z,99458.13
2023-03-07T00:03:39.637Z,99454.66
2023-03-07T00:04:01.974Z,99458.19
2023-03-07T00:04:23.592Z,99447.19
2023-03-07T00:04:46.067Z,99454.06
2023-03-07T00:05:09.483Z,99454.75
2023-03-07T00:05:32.313Z,99444.06
2023-03-07T00:06:01.354Z,99446.63
2023-03-07T00:06:24.863Z,99453.84
2023-03-07T00:06:46.468Z,99456.25
2023-03-07T00:07:08.041Z,99454.41
2023-03-07T00:07:31.540Z,99448.25
2023-03-07T00:07:54.092Z,99451.19
2023-03-07T00:08:16.080Z,99471.56
2023-03-07T00:08:37.710Z,99455.75
2023-03-07T00:09:00.814Z,99438.28
2023-03-07T00:09:22.642Z,99448.69
2023-03-07T00:09:45.560Z,99457.03
2023-03-07T00:10:08.547Z,99455.84
2023-03-07T00:10:30.684Z,99453.81
2023-03-07T00:10:52.319Z,99433.06
2023-03-07T00:11:13.952Z,99456.88
2023-03-07T00:11:36.510Z,99448.06
2023-03-07T00:11:58.091Z,99455.75
2023-03-07T00:12:21.672Z,99464.53
2023-03-07T00:12:45.667Z,99453.88
2023-03-07T00:13:07.416Z,99470.47
2023-03-07T00:13:30.433Z,99457.25
2023-03-07T00:13:52.639Z,99464.59
2023-03-07T00:14:15.275Z,99450.75
2023-03-07T00:14:36.872Z,99458.47
2023-03-07T00:14:58.482Z,99459.91
2023-03-07T00:15:20.034Z,99459.91
2023-03-07T00:15:41.657Z,99448.59
2023-03-07T00:16:04.690Z,99459.03
2023-03-07T00:16:27.689Z,99448.63
2023-03-07T00:16:50.074Z,99451.13
2023-03-07T00:17:11.706Z,99452.44
2023-03-07T00:17:35.588Z,99454.41
2023-03-07T00:17:57.339Z,99451.72
2023-03-07T00:18:19.924Z,99445.41
2023-03-07T00:18:42.240Z,99439.50
2023-03-07T00:19:05.093Z,99451.50
2023-03-07T00:19:26.900Z,99440.25
2023-03-07T00:19:48.477Z,99447.16
2023-03-07T00:20:14.508Z,99447.75
2023-03-07T00:20:36.138Z,99442.81
2023-03-07T00:20:59.095Z,99436.16
2023-03-07T00:21:22.346Z,99461.59
2023-03-07T00:21:44.945Z,99458.94
2023-03-07T00:22:07.113Z,99446.72
2023-03-07T00:22:30.177Z,99456.22
2023-03-07T00:22:51.789Z,99455.22
2023-03-07T00:23:14.311Z,99437.50
2023-03-07T00:23:37.579Z,99454.19
2023-03-07T00:23:59.269Z,99442.28
2023-03-07T00:24:20.908Z,99446.16
2023-03-07T00:24:46.027Z,99453.84
2023-03-07T00:25:08.815Z,99450.88
2023-03-07T00:25:30.398Z,99446.53
2023-03-07T00:25:58.694Z,99447.19
2023-03-07T00:26:21.953Z,99448.84
2023-03-07T00:26:43.636Z,99449.59
2023-03-07T00:27:05.615Z,99435.25
2023-03-07T00:27:28.192Z,99448.16
2023-03-07T00:27:51.202Z,99447.16
2023-03-07T00:28:12.804Z,99450.13
2023-03-07T00:28:35.140Z,99447.44
2023-03-07T00:28:57.765Z,99439.59
2023-03-07T00:29:19.458Z,99446.47
2023-03-07T00:29:41.352Z,99442.19
2023-03-07T00:30:04.865Z,99435.91
2023-03-07T00:30:27.783Z,99441.88
2023-03-07T00:30:49.439Z,99436.44
2023-03-07T00:31:11.580Z,99439.84
2023-03-07T00:31:33.790Z,99443.75
2023-03-07T00:31:56.675Z,99438.56
2023-03-07T00:32:18.351Z,99434.31
2023-03-07T00:32:40.077Z,99428.94
2023-03-07T00:33:02.012Z,99436.50
2023-03-07T00:33:23.683Z,99433.75
2023-03-07T00:33:46.440Z,99442.34
2023-03-07T00:34:08.055Z,99438.09
2023-03-07T00:34:29.829Z,99438.09
2023-03-07T00:34:51.497Z,99439.03
2023-03-07T00:35:13.173Z,99406.34
2023-03-07T00:35:35.839Z,99438.97
2023-03-07T00:35:58.930Z,99432.59
2023-03-07T00:36:22.080Z,99434.19
2023-03-07T00:36:43.688Z,99427.19
2023-03-07T00:37:06.422Z,99435.91
2023-03-07T00:37:28.156Z,99431.31
2023-03-07T00:37:49.798Z,99438.25
2023-03-07T00:38:11.414Z,99427.53
2023-03-07T00:38:34.853Z,99397.47
2023-03-07T00:38:56.590Z,99436.28
2023-03-07T00:39:18.178Z,99431.75
2023-03-07T00:39:39.965Z,99438.06
2023-03-07T00:40:02.921Z,99434.75
2023-03-07T00:40:24.534Z,99430.72
2023-03-07T00:40:46.234Z,99437.75
2023-03-07T00:41:10.970Z,99432.59
2023-03-07T00:41:33.608Z,99430.56
2023-03-07T00:41:55.231Z,99436.25
2023-03-07T00:42:17.085Z,99437.88
2023-03-07T00:42:38.683Z,99427.31
2023-03-07T00:43:01.667Z,99438.56
2023-03-07T00:43:24.925Z,99431.97
2023-03-07T00:43:47.183Z,99419.41
2023-03-07T00:44:08.884Z,99432.25
2023-03-07T00:44:32.706Z,99427.78
2023-03-07T00:44:54.348Z,99437.47
2023-03-07T00:45:16.394Z,99433.97
2023-03-07T00:45:38.016Z,99424.09
2023-03-07T00:46:01.342Z,99437.88
2023-03-07T00:46:24.689Z,99428.94
2023-03-07T00:46:46.240Z,99423.94
2023-03-07T00:47:08.425Z,99425.72
2023-03-07T00:47:31.054Z,99426.22
2023-03-07T00:47:53.011Z,99429.03
2023-03-07T00:48:14.708Z,99420.25
2023-03-07T00:48:38.319Z,99434.03
2023-03-07T00:49:01.015Z,99429.34
2023-03-07T00:49:22.861Z,99432.63
2023-03-07T00:49:44.487Z,99426.28
2023-03-07T00:50:06.800Z,99418.91
2023-03-07T00:50:28.424Z,99433.94
2023-03-07T00:50:51.394Z,99431.34
2023-03-07T00:51:15.609Z,99425.25
2023-03-07T00:51:37.282Z,99432.78
2023-03-07T00:51:59.538Z,99427.81
2023-03-07T00:52:23.475Z,99418.84
2023-03-07T00:52:45.189Z,99419.56
2023-03-07T00:53:06.989Z,99412.34
2023-03-07T00:53:28.659Z,99415.97
2023-03-07T00:53:52.242Z,99428.00
2023-03-07T00:54:15.289Z,99420.66
2023-03-07T00:54:37.023Z,99422.13
2023-03-07T00:54:58.895Z,99421.94
2023-03-07T00:55:20.811Z,99416.38
2023-03-07T00:55:53.849Z,99423.22
2023-03-07T00:56:18.096Z,99423.84
2023-03-07T00:56:40.061Z,99423.84
2023-03-07T00:57:02.970Z,99409.25
2023-03-07T00:57:24.987Z,99424.22
2023-03-07T00:57:46.630Z,99418.22
2023-03-07T00:58:09.621Z,99418.22
2023-03-07T00:58:34.234Z,99411.81
2023-03-07T00:58:56.079Z,99416.84
2023-03-07T00:59:17.663Z,99416.84
2023-03-07T00:59:39.360Z,99397.81
2023-03-07T01:00:01.000Z,99416.38
2023-03-07T01:00:23.712Z,99418.28
2023-03-07T01:00:45.329Z,99423.16
2023-03-07T01:01:09.731Z,99431.25
2023-03-07T01:01:32.785Z,99420.72
2023-03-07T01:01:54.410Z,99418.75
2023-03-07T01:02:16.119Z,99416.69
2023-03-07T01:02:37.830Z,99419.75
2023-03-07T01:03:01.967Z,99409.84
2023-03-07T01:03:25.471Z,99411.31
2023-03-07T01:03:49.652Z,99392.63
2023-03-07T01:04:11.441Z,99425.91
2023-03-07T01:04:33.172Z,99401.38
2023-03-07T01:04:55.778Z,99409.09
2023-03-07T01:05:17.423Z,99411.59
2023-03-07T01:05:39.333Z,99408.88
2023-03-07T01:06:06.194Z,99414.84
2023-03-07T01:06:31.438Z,99412.06
2023-03-07T01:06:53.060Z,99405.06
2023-03-07T01:07:14.639Z,99400.50
2023-03-07T01:07:36.433Z,99411.72
2023-03-07T01:07:58.039Z,99422.19
2023-03-07T01:08:21.469Z,99411.69
2023-03-07T01:08:43.857Z,99398.19
2023-03-07T01:09:08.395Z,99401.56
2023-03-07T01:09:30.030Z,99395.09
2023-03-07T01:09:53.140Z,99413.72
2023-03-07T01:10:17.766Z,99402.22
2023-03-07T01:10:39.581Z,99419.41
2023-03-07T01:11:03.832Z,99406.94
2023-03-07T01:11:26.085Z,99406.00
2023-03-07T01:11:50.544Z,99407.44
2023-03-07T01:12:12.527Z,99402.69
2023-03-07T01:12:34.159Z,99408.66
2023-03-07T01:12:56.259Z,99406.06
2023-03-07T01:13:21.584Z,99412.41
2023-03-07T01:13:43.518Z,99391.97
2023-03-07T01:14:06.405Z,99393.44
2023-03-07T01:14:30.438Z,99397.41
2023-03-07T01:14:53.125Z,99399.91
2023-03-07T01:15:15.158Z,99406.91
2023-03-07T01:15:37.451Z,99397.41
2023-03-07T01:16:07.350Z,99405.00
2023-03-07T01:16:32.391Z,99397.28
2023-03-07T01:16:54.653Z,99403.16
2023-03-07T01:17:16.571Z,99405.66
2023-03-07T01:17:39.333Z,99399.22
2023-03-07T01:18:02.844Z,99399.69
2023-03-07T01:18:24.583Z,99410.00
2023-03-07T01:18:50.365Z,99396.75
2023-03-07T01:19:12.671Z,99403.13
2023-03-07T01:19:35.888Z,99391.72
2023-03-07T01:19:57.516Z,99404.16
2023-03-07T01:20:19.416Z,99401.19
2023-03-07T01:20:41.781Z,99398.13
2023-03-07T01:21:11.223Z,99397.88
2023-03-07T01:21:36.601Z,99391.63
2023-03-07T01:21:59.137Z,99396.69
2023-03-07T01:22:20.906Z,99394.19
2023-03-07T01:22:42.683Z,99386.13
2023-03-07T01:23:06.091Z,99399.16
2023-03-07T01:23:27.769Z,99386.63
2023-03-07T01:23:50.106Z,99387.81
2023-03-07T01:24:14.132Z,99391.13
2023-03-07T01:24:36.082Z,99390.22
2023-03-07T01:24:58.912Z,99385.81
2023-03-07T01:25:20.636Z,99390.03
2023-03-07T01:25:43.430Z,99384.78
2023-03-07T01:26:05.633Z,99388.44
2023-03-07T01:26:37.671Z,99385.63
2023-03-07T01:27:00.360Z,99383.69
2023-03-07T01:27:21.942Z,99402.56
2023-03-07T01:27:43.660Z,99390.28
2023-03-07T01:28:06.197Z,99382.03
2023-03-07T01:28:29.182Z,99389.75
2023-03-07T01:28:53.092Z,99386.16
2023-03-07T01:29:14.790Z,99403.31
2023-03-07T01:29:36.615Z,99391.13
2023-03-07T01:29:58.225Z,99378.97
2023-03-07T01:30:21.046Z,99391.13
2023-03-07T01:30:42.740Z,99392.00
2023-03-07T01:31:04.771Z,99397.97
2023-03-07T01:31:26.803Z,99378.66
2023-03-07T01:31:49.465Z,99392.56
2023-03-07T01:32:11.193Z,99387.84
2023-03-07T01:32:33.647Z,99382.31
2023-03-07T01:32:56.016Z,99385.13
2023-03-07T01:33:19.961Z,99385.34
2023-03-07T01:33:42.142Z,99389.50
2023-03-07T01:34:05.052Z,99384.97
2023-03-07T01:34:33.412Z,99384.84
2023-03-07T01:34:55.108Z,99390.97
2023-03-07T01:35:17.068Z,99373.06
2023-03-07T01:35:39.986Z,99382.47
2023-03-07T01:36:01.811Z,99381.66
2023-03-07T01:36:29.947Z,99379.91
2023-03-07T01:36:56.890Z,99379.63
2023-03-07T01:37:19.137Z,99385.44
2023-03-07T01:37:41.432Z,99381.66
2023-03-07T01:38:05.319Z,99386.50
2023-03-07T01:38:28.863Z,99385.75
2023-03-07T01:38:54.775Z,99385.59
2023-03-07T01:39:17.304Z,99382.75
2023-03-07T01:39:53.650Z,99388.22
2023-03-07T01:40:16.575Z,99380.84
2023-03-07T01:40:38.797Z,99382.53
2023-03-07T01:41:01.511Z,99382.72
2023-03-07T01:41:25.198Z,99370.38
2023-03-07T01:41:47.780Z,99382.13
2023-03-07T01:42:10.700Z,99383.63
2023-03-07T01:42:32.603Z,99385.34
2023-03-07T01:43:22.198Z,99381.66
2023-03-07T01:43:46.611Z,99380.50
2023-03-07T01:44:16.847Z,99380.75
2023-03-07T01:45:01.212Z,99385.94
2023-03-07T01:46:23.730Z,99381.75
2023-03-07T01:46:52.764Z,99377.84
2023-03-07T01:47:15.228Z,99381.22
2023-03-07T01:47:45.231Z,99387.22
2023-03-07T01:48:07.511Z,99386.63
2023-03-07T01:48:29.323Z,99382.44
2023-03-07T01:48:54.907Z,99376.25
2023-03-07T01:49:21.781Z,99377.91
2023-03-07T01:49:47.276Z,99384.50
2023-03-07T01:50:14.907Z,99374.94
2023-03-07T01:50:36.590Z,99378.13
2023-03-07T01:50:58.485Z,99373.84
2023-03-07T01:51:20.769Z,99375.59
2023-03-07T01:51:48.709Z,99377.44
2023-03-07T01:52:15.011Z,99387.28
2023-03-07T01:52:45.788Z,99384.38
2023-03-07T01:53:08.688Z,99366.28
2023-03-07T01:53:31.420Z,99376.53
2023-03-07T01:53:55.647Z,99374.22
2023-03-07T01:54:20.609Z,99380.41
2023-03-07T01:54:48.691Z,99379.78
2023-03-07T01:55:16.439Z,99368.06
2023-03-07T01:55:39.430Z,99374.91
2023-03-07T01:56:10.807Z,99365.84
2023-03-07T01:56:33.958Z,99368.91
2023-03-07T01:56:56.720Z,99371.28
2023-03-07T01:57:20.426Z,99371.28
2023-03-07T01:57:45.653Z,99370.69
2023-03-07T01:58:10.613Z,99360.06
2023-03-07T01:58:32.457Z,99362.28
2023-03-07T01:58:55.731Z,99362.88
2023-03-07T01:59:25.646Z,99364.34
2023-03-07T01:59:50.901Z,99373.16
2023-03-07T02:00:22.370Z,99371.56
2023-03-07T02:00:44.956Z,99368.72
2023-03-07T02:01:10.417Z,99370.19
2023-03-07T02:01:33.345Z,99360.19
2023-03-07T02:01:56.112Z,99365.34
2023-03-07T02:02:22.597Z,99364.41
2023-03-07T02:02:48.446Z,99369.75
2023-03-07T02:03:21.782Z,99364.91
2023-03-07T02:03:49.276Z,99358.66
2023-03-07T02:04:19.265Z,99353.91
2023-03-07T02:04:44.676Z,99366.13
2023-03-07T02:05:11.115Z,99357.78
2023-03-07T02:05:35.479Z,99347.97
2023-03-07T02:06:00.764Z,99349.25
2023-03-07T02:06:22.791Z,99357.03
2023-03-07T02:06:44.438Z,99365.09
2023-03-07T02:07:06.812Z,99368.34
2023-03-07T02:07:34.333Z,99359.19
2023-03-07T02:08:00.365Z,99352.19
2023-03-07T02:08:27.885Z,99367.09
2023-03-07T02:08:51.284Z,99354.69
2023-03-07T02:09:19.603Z,99358.00
2023-03-07T02:09:43.334Z,99352.88
2023-03-07T02:10:06.870Z,99334.53
2023-03-07T02:10:30.758Z,99357.34
2023-03-07T02:10:53.630Z,99347.72
2023-03-07T02:11:16.601Z,99349.31
2023-03-07T02:11:41.071Z,99353.59
2023-03-07T02:12:04.596Z,99346.53
2023-03-07T02:12:27.034Z,99331.75
2023-03-07T02:12:50.453Z,99349.50
2023-03-07T02:13:12.583Z,99360.81
2023-03-07T02:13:36.068Z,99350.88
2023-03-07T02:13:59.060Z,99346.00
2023-03-07T02:14:20.712Z,99347.72
2023-03-07T02:14:44.172Z,99346.97
2023-03-07T02:15:09.704Z,99338.94
2023-03-07T02:15:33.581Z,99343.81
2023-03-07T02:15:56.210Z,99335.38
2023-03-07T02:16:18.083Z,99343.03
2023-03-07T02:16:40.983Z,99343.72
2023-03-07T02:17:04.033Z,99347.91
2023-03-07T02:17:27.794Z,99343.31
2023-03-07T02:17:50.179Z,99347.59
2023-03-07T02:18:16.803Z,99345.00
2023-03-07T02:18:42.581Z,99339.41
2023-03-07T02:19:11.692Z,99335.69
2023-03-07T02:19:49.064Z,99336.13
2023-03-07T02:20:30.186Z,99349.13
2023-03-07T02:20:59.228Z,99333.84
2023-03-07T02:21:32.192Z,99343.34
2023-03-07T02:22:03.155Z,99338.84
2023-03-07T02:22:25.950Z,99331.69
2023-03-07T02:22:48.735Z,99341.16
2023-03-07T02:23:18.182Z,99333.97
2023-03-07T02:23:47.722Z,99339.03
2023-03-07T02:24:19.058Z,99334.66
2023-03-07T02:24:48.601Z,99338.88
2023-03-07T02:25:19.233Z,99315.97
2023-03-07T02:25:44.910Z,99336.56
2023-03-07T02:26:11.860Z,99337.34
2023-03-07T02:26:43.976Z,99337.22
2023-03-07T02:27:06.924Z,99327.22
2023-03-07T02:27:32.491Z,99331.72
2023-03-07T02:27:57.011Z,99339.31
2023-03-07T02:28:19.306Z,99333.78
2023-03-07T02:28:42.691Z,99331.28
2023-03-07T02:29:05.180Z,99328.66
2023-03-07T02:29:28.300Z,99332.00
2023-03-07T02:29:51.122Z,99333.78
2023-03-07T02:30:13.222Z,99339.84
2023-03-07T02:30:36.621Z,99332.50
2023-03-07T02:31:06.475Z,99321.34
2023-03-07T02:31:31.465Z,99330.75
2023-03-07T02:31:53.048Z,99332.31
2023-03-07T02:32:14.824Z,99326.13
2023-03-07T02:32:36.512Z,99332.19
2023-03-07T02:32:59.105Z,99321.47
2023-03-07T02:33:24.756Z,99329.56
2023-03-07T02:33:50.544Z,99326.44
2023-03-07T02:34:23.646Z,99331.63
2023-03-07T02:34:51.125Z,99327.84
2023-03-07T02:35:18.698Z,99336.38
2023-03-07T02:35:42.830Z,99327.31
2023-03-07T02:36:08.021Z,99328.00
2023-03-07T02:36:36.004Z,99315.75
2023-03-07T02:37:13.322Z,99326.84
2023-03-07T02:37:37.973Z,99325.00
2023-03-07T02:38:04.017Z,99324.00
2023-03-07T02:38:26.611Z,99309.66
2023-03-07T02:38:51.297Z,99326.66
2023-03-07T02:39:14.516Z,99327.59
2023-03-07T02:39:36.454Z,99323.19
2023-03-07T02:40:03.764Z,99323.09
2023-03-07T02:40:29.487Z,99325.69
2023-03-07T02:40:53.701Z,99319.69
2023-03-07T02:41:19.069Z,99326.13
2023-03-07T02:41:40.893Z,99316.47
2023-03-07T02:42:17.324Z,99326.94
2023-03-07T02:42:45.097Z,99323.03
2023-03-07T02:43:09.582Z,99322.31
2023-03-07T02:43:33.570Z,99322.19
2023-03-07T02:43:55.298Z,99316.91
2023-03-07T02:44:18.061Z,99319.34
2023-03-07T02:44:39.887Z,99320.28
2023-03-07T02:45:03.766Z,99315.66
2023-03-07T02:45:28.392Z,99319.94
2023-03-07T02:45:51.258Z,99311.25
2023-03-07T02:46:12.942Z,99310.09
2023-03-07T02:46:34.644Z,99313.50
2023-03-07T02:46:56.282Z,99317.75
2023-03-07T02:47:21.606Z,99323.81
2023-03-07T02:47:45.056Z,99323.56
2023-03-07T02:48:09.691Z,99305.34
2023-03-07T02:48:31.596Z,99314.56
2023-03-07T02:48:53.914Z,99312.50
2023-03-07T02:49:17.944Z,99316.00
2023-03-07T02:49:39.557Z,99314.03
2023-03-07T02:50:01.409Z,99315.06
2023-03-07T02:50:23.442Z,99311.25
2023-03-07T02:50:48.727Z,99301.94
2023-03-07T02:51:12.043Z,99314.03
2023-03-07T02:51:33.796Z,99319.13
2023-03-07T02:51:58.345Z,99312.72
2023-03-07T02:52:21.675Z,99311.72
2023-03-07T02:52:43.444Z,99310.00
2023-03-07T02:53:05.260Z,99307.19
2023-03-07T02:53:26.922Z,99308.84
2023-03-07T02:53:49.457Z,99306.88
2023-03-07T02:54:11.394Z,99319.78
2023-03-07T02:54:33.054Z,99307.97
2023-03-07T02:54:54.830Z,99307.78
2023-03-07T02:55:18.698Z,99312.16
2023-03-07T02:55:45.664Z,99302.38
2023-03-07T02:56:07.955Z,99304.25
2023-03-07T02:56:29.598Z,99312.66
2023-03-07T02:56:51.181Z,99311.03
2023-03-07T02:57:15.891Z,99308.00
2023-03-07T02:57:37.659Z,99308.66
2023-03-07T02:58:00.556Z,99303.44
2023-03-07T02:58:23.287Z,99302.38
2023-03-07T02:58:44.932Z,99304.50
2023-03-07T02:59:06.676Z,99309.78
2023-03-07T02:59:28.394Z,99314.78
2023-03-07T02:59:50.337Z,99306.69
2023-03-07T03:00:14.570Z,99302.00
2023-03-07T03:00:37.154Z,99308.88
2023-03-07T03:00:59.314Z,99306.88
2023-03-07T03:01:20.930Z,99316.25
2023-03-07T03:01:42.874Z,99315.00
2023-03-07T03:02:05.598Z,99309.59
2023-03-07T03:02:27.399Z,99309.38
2023-03-07T03:02:49.064Z,99306.47
2023-03-07T03:03:11.883Z,99306.34
2023-03-07T03:03:34.678Z,99311.25
2023-03-07T03:03:56.311Z,99302.19
2023-03-07T03:04:18.298Z,99310.66
2023-03-07T03:04:39.952Z,99302.53
2023-03-07T03:05:02.760Z,99307.78
2023-03-07T03:05:24.545Z,99296.41
2023-03-07T03:05:47.543Z,99306.03
2023-03-07T03:06:10.113Z,99304.38
2023-03-07T03:06:31.701Z,99308.56
2023-03-07T03:06:54.303Z,99303.94
2023-03-07T03:07:15.962Z,99317.94
2023-03-07T03:07:37.755Z,99308.19
2023-03-07T03:07:59.371Z,99299.66
2023-03-07T03:08:22.043Z,99303.22
2023-03-07T03:08:43.711Z,99306.53
2023-03-07T03:09:05.392Z,99302.25
2023-03-07T03:09:27.552Z,99307.78
2023-03-07T03:09:50.244Z,99304.91
2023-03-07T03:10:12.342Z,99306.41
2023-03-07T03:10:34.040Z,99284.94
2023-03-07T03:10:57.745Z,99308.78
2023-03-07T03:11:22.228Z,99287.88
2023-03-07T03:11:43.916Z,99312.63
2023-03-07T03:12:06.263Z,99304.81
2023-03-07T03:12:30.296Z,99305.06
2023-03-07T03:12:53.463Z,99302.72
2023-03-07T03:13:15.029Z,99305.13
2023-03-07T03:13:39.061Z,99305.81
2023-03-07T03:14:01.462Z,99302.25
2023-03-07T03:14:25.330Z,99304.75
2023-03-07T03:14:46.998Z,99312.53
2023-03-07T03:15:10.122Z,99308.03
2023-03-07T03:15:32.276Z,99293.19
2023-03-07T03:15:57.243Z,99301.78
2023-03-07T03:16:18.963Z,99298.28
2023-03-07T03:16:41.331Z,99302.66
2023-03-07T03:17:03.861Z,99303.47
2023-03-07T03:17:26.778Z,99303.41
2023-03-07T03:17:48.885Z,99302.78
2023-03-07T03:18:11.314Z,99296.84
2023-03-07T03:18:33.022Z,99295.34
2023-03-07T03:18:54.672Z,99300.63
2023-03-07T03:19:17.306Z,99304.22
2023-03-07T03:19:38.937Z,99302.06
2023-03-07T03:20:00.636Z,99300.56
2023-03-07T03:20:22.519Z,99287.47
2023-03-07T03:20:45.101Z,99296.09
2023-03-07T03:21:09.312Z,99297.63
2023-03-07T03:21:31.065Z,99310.50
2023-03-07T03:21:54.352Z,99297.28
2023-03-07T03:22:17.113Z,99302.19
2023-03-07T03:22:41.890Z,99302.06
2023-03-07T03:23:04.489Z,99289.78
2023-03-07T03:23:28.206Z,99297.50
2023-03-07T03:23:50.879Z,99309.78
2023-03-07T03:24:12.647Z,99283.72
2023-03-07T03:24:38.244Z,99295.78
2023-03-07T03:25:00.425Z,99297.44
2023-03-07T03:25:24.377Z,99295.56
2023-03-07T03:25:47.403Z,99298.75
2023-03-07T03:26:11.606Z,99285.31
2023-03-07T03:26:33.365Z,99293.91
2023-03-07T03:26:55.918Z,99298.94
2023-03-07T03:27:17.589Z,99298.00
2023-03-07T03:27:43.457Z,99289.97
2023-03-07T03:28:06.013Z,99296.59
2023-03-07T03:28:29.002Z,99295.50
2023-03-07T03:28:54.351Z,99295.78
2023-03-07T03:29:17.045Z,99300.81
2023-03-07T03:29:39.053Z,99290.78
2023-03-07T03:30:01.682Z,99302.28
2023-03-07T03:30:26.593Z,99286.91
2023-03-07T03:30:57.215Z,99289.28
2023-03-07T03:31:19.854Z,99296.22
2023-03-07T03:31:41.689Z,99288.75
2023-03-07T03:32:04.019Z,99292.91
2023-03-07T03:32:26.032Z,99295.34
2023-03-07T03:32:47.717Z,99296.81
2023-03-07T03:33:12.807Z,99294.28
2023-03-07T03:33:34.778Z,99296.03
2023-03-07T03:33:56.758Z,99291.34
2023-03-07T03:34:18.641Z,99285.50
2023-03-07T03:34:41.600Z,99286.75
2023-03-07T03:35:04.117Z,99280.81
2023-03-07T03:35:25.907Z,99294.28
2023-03-07T03:35:50.693Z,99298.56
2023-03-07T03:36:17.098Z,99303.28
2023-03-07T03:36:41.452Z,99289.28
2023-03-07T03:37:04.691Z,99293.88
2023-03-07T03:37:28.074Z,99287.81
2023-03-07T03:37:50.397Z,99291.09
2023-03-07T03:38:12.045Z,99291.66
2023-03-07T03:38:34.941Z,99285.09
2023-03-07T03:38:59.569Z,99285.72
2023-03-07T03:39:21.621Z,99286.00
2023-03-07T03:39:47.993Z,99279.41
2023-03-07T03:40:14.566Z,99280.41
2023-03-07T03:40:39.402Z,99287.09
2023-03-07T03:41:04.161Z,99283.13
2023-03-07T03:41:26.450Z,99295.34
2023-03-07T03:41:48.611Z,99286.63
2023-03-07T03:42:12.620Z,99285.28
2023-03-07T03:42:34.257Z,99277.00
2023-03-07T03:42:58.352Z,99278.59
2023-03-07T03:43:20.691Z,99295.91
2023-03-07T03:43:43.257Z,99279.97
2023-03-07T03:44:04.970Z,99285.91
2023-03-07T03:44:27.136Z,99281.78
2023-03-07T03:44:49.604Z,99290.50
2023-03-07T03:45:14.676Z,99285.47
2023-03-07T03:45:36.241Z,99282.63
2023-03-07T03:45:58.384Z,99269.69
2023-03-07T03:46:21.917Z,99281.94
2023-03-07T03:46:44.703Z,99275.72
2023-03-07T03:47:06.445Z,99289.16
2023-03-07T03:47:28.061Z,99281.34
2023-03-07T03:47:51.036Z,99283.22
2023-03-07T03:48:12.855Z,99273.53
2023-03-07T03:48:35.445Z,99283.94
2023-03-07T03:48:57.263Z,99283.78
2023-03-07T03:49:21.670Z,99283.78
2023-03-07T03:49:45.350Z,99279.19
2023-03-07T03:50:07.944Z,99285.19
2023-03-07T03:50:30.813Z,99288.09
2023-03-07T03:51:00.608Z,99284.59
2023-03-07T03:51:23.696Z,99280.97
2023-03-07T03:51:47.244Z,99284.31
2023-03-07T03:52:10.461Z,99285.50
2023-03-07T03:52:32.158Z,99289.72
2023-03-07T03:52:53.773Z,99256.69
2023-03-07T03:53:15.447Z,99288.50
2023-03-07T03:53:40.426Z,99284.09
2023-03-07T03:54:02.026Z,99276.78
2023-03-07T03:54:23.615Z,99282.09
2023-03-07T03:54:45.612Z,99277.59
2023-03-07T03:55:07.811Z,99280.31
2023-03-07T03:55:30.473Z,99280.41
2023-03-07T03:55:52.077Z,99276.63
2023-03-07T03:56:16.586Z,99268.91
2023-03-07T03:56:38.236Z,99281.22
2023-03-07T03:57:00.825Z,99274.19
2023-03-07T03:57:24.171Z,99281.59
2023-03-07T03:57:45.785Z,99279.56
2023-03-07T03:58:08.714Z,99280.19
2023-03-07T03:58:30.658Z,99261.28
2023-03-07T03:58:55.179Z,99279.09
2023-03-07T03:59:16.975Z,99282.41
2023-03-07T03:59:38.617Z,99262.03
2023-03-07T04:00:00.475Z,99272.19
2023-03-07T04:00:23.682Z,99283.75
2023-03-07T04:00:45.422Z,99277.78
2023-03-07T04:01:09.262Z,99280.13
2023-03-07T04:01:31.812Z,99281.06
2023-03-07T04:01:55.059Z,99269.47
2023-03-07T04:02:17.063Z,99264.25
2023-03-07T04:02:39.101Z,99274.38
2023-03-07T04:03:02.697Z,99269.16
2023-03-07T04:03:25.529Z,99271.50
2023-03-07T04:03:50.139Z,99282.16
2023-03-07T04:04:12.645Z,99273.13
2023-03-07T04:04:34.344Z,99274.53
2023-03-07T04:04:56.874Z,99280.50
2023-03-07T04:05:18.558Z,99274.53
2023-03-07T04:05:40.222Z,99268.19
2023-03-07T04:06:02.194Z,99277.09
2023-03-07T04:06:26.215Z,99273.56
2023-03-07T04:06:49.403Z,99274.81
2023-03-07T04:07:11.747Z,99273.59
2023-03-07T04:07:33.296Z,99274.31
2023-03-07T04:07:54.883Z,99273.25
2023-03-07T04:08:17.453Z,99272.22
2023-03-07T04:08:40.084Z,99254.03
2023-03-07T04:09:03.114Z,99266.66
2023-03-07T04:09:24.708Z,99268.28
2023-03-07T04:09:46.333Z,99272.59
2023-03-07T04:10:09.990Z,99251.59
2023-03-07T04:10:31.593Z,99259.34
2023-03-07T04:10:54.168Z,99273.88
2023-03-07T04:11:16.348Z,99263.63
2023-03-07T04:11:39.419Z,99254.13
2023-03-07T04:12:01.066Z,99261.69
2023-03-07T04:12:22.890Z,99259.94
2023-03-07T04:12:44.531Z,99272.03
2023-03-07T04:13:07.122Z,99269.47
2023-03-07T04:13:30.842Z,99271.13
2023-03-07T04:13:53.074Z,99259.34
2023-03-07T04:14:16.761Z,99247.69
2023-03-07T04:14:38.370Z,99254.78
2023-03-07T04:14:59.974Z,99260.97
2023-03-07T04:15:21.584Z,99237.56
2023-03-07T04:15:43.895Z,99262.28
2023-03-07T04:16:07.107Z,99251.91
2023-03-07T04:16:29.407Z,99260.69
2023-03-07T04:16:51.087Z,99256.03
2023-03-07T04:17:12.754Z,99254.91
2023-03-07T04:17:37.165Z,99252.44
2023-03-07T04:17:59.320Z,99230.75
2023-03-07T04:18:20.976Z,99246.63
2023-03-07T04:18:42.834Z,99250.88
2023-03-07T04:19:04.462Z,99251.47
2023-03-07T04:19:26.052Z,99265.31
2023-03-07T04:19:48.611Z,99246.53
2023-03-07T04:20:17.292Z,99239.22
2023-03-07T04:20:39.694Z,99250.31
2023-03-07T04:21:01.833Z,99249.34
2023-03-07T04:21:24.546Z,99241.94
2023-03-07T04:21:49.025Z,99256.47
2023-03-07T04:22:11.673Z,99258.09
2023-03-07T04:22:33.480Z,99246.22
2023-03-07T04:22:56.079Z,99244.84
2023-03-07T04:23:18.407Z,99241.84
2023-03-07T04:23:40.083Z,99243.44
2023-03-07T04:24:01.791Z,99250.09
2023-03-07T04:24:26.759Z,99248.16
2023-03-07T04:24:48.451Z,99248.06
2023-03-07T04:25:10.488Z,99247.94
2023-03-07T04:25:33.126Z,99247.78
2023-03-07T04:25:59.584Z,99249.22
2023-03-07T04:26:21.974Z,99244.13
2023-03-07T04:26:43.583Z,99245.84
2023-03-07T04:27:05.374Z,99235.41
2023-03-07T04:27:29.407Z,99238.88
2023-03-07T04:27:51.119Z,99232.59
2023-03-07T04:28:12.767Z,99240.13
2023-03-07T04:28:45.207Z,99237.66
2023-03-07T04:29:17.653Z,99237.44
2023-03-07T04:29:46.745Z,99234.31
2023-03-07T04:30:15.249Z,99246.34
2023-03-07T04:30:37.075Z,99250.63
2023-03-07T04:30:58.988Z,99233.34
2023-03-07T04:31:23.932Z,99229.41
2023-03-07T04:31:46.029Z,99231.00
2023-03-07T04:32:07.726Z,99234.44
2023-03-07T04:32:29.512Z,99232.00
2023-03-07T04:32:52.160Z,99234.03
2023-03-07T04:33:13.825Z,99230.41
2023-03-07T04:33:35.438Z,99230.06
2023-03-07T04:33:57.529Z,99226.75
2023-03-07T04:34:20.481Z,99225.63
2023-03-07T04:34:42.091Z,99232.34
2023-03-07T04:35:04.273Z,99237.38
2023-03-07T04:35:25.883Z,99232.09
2023-03-07T04:35:48.906Z,99233.59
2023-03-07T04:36:12.588Z,99235.03